createdAt,value
2018-09-03T00:01:01.009Z,66.62
2018-09-03T00:03:34.334Z,66.82
2018-09-03T00:06:07.702Z,66.93
2018-09-03T00:08:42.333Z,67.33
2018-09-03T00:11:15.660Z,67.77
2018-09-03T00:13:48.921Z,68.08
2018-09-03T00:16:22.810Z,68.19
2018-09-03T00:18:56.149Z,68.38
2018-09-03T00:21:30.752Z,68.86
2018-09-03T00:24:05.035Z,68.87
2018-09-03T00:26:38.314Z,69.20
2018-09-03T00:29:12.644Z,69.93
2018-09-03T00:31:52.043Z,70.39
2018-09-03T00:34:37.212Z,70.76
2018-09-03T00:37:19.112Z,70.59
2018-09-03T00:39:57.184Z,70.79
2018-09-03T00:42:35.372Z,71.29
2018-09-03T00:45:12.922Z,71.38
2018-09-03T00:47:45.481Z,71.79
2018-09-03T00:50:18.272Z,72.04
2018-09-03T00:52:50.676Z,72.14
2018-09-03T00:55:26.109Z,72.38
2018-09-03T00:57:58.924Z,74.04
2018-09-03T01:00:32.404Z,73.80
2018-09-03T01:03:05.040Z,73.85
2018-09-03T01:05:39.244Z,75.38
2018-09-03T01:08:11.908Z,74.94
2018-09-03T01:10:44.661Z,74.91
2018-09-03T01:13:17.945Z,74.98
2018-09-03T01:15:50.424Z,76.57
2018-09-03T01:18:22.996Z,76.73
2018-09-03T01:20:56.831Z,76.72
2018-09-03T01:23:29.362Z,76.78
2018-09-03T01:26:01.739Z,77.17
2018-09-03T01:28:36.645Z,77.87
2018-09-03T01:31:11.412Z,78.58
2018-09-03T01:33:46.615Z,78.46
2018-09-03T01:36:20.959Z,78.42
2018-09-03T01:38:55.235Z,78.25
2018-09-03T01:41:28.740Z,78.57
2018-09-03T01:44:02.432Z,78.71
2018-09-03T01:46:34.912Z,78.88
2018-09-03T01:49:07.456Z,79.02
2018-09-03T01:51:41.108Z,79.04
2018-09-03T01:54:14.425Z,79.42
2018-09-03T01:56:47.735Z,79.46
2018-09-03T01:59:21.636Z,79.68
2018-09-03T02:01:54.525Z,79.68
2018-09-03T02:04:51.498Z,79.60
2018-09-03T02:07:26.944Z,79.58
2018-09-03T02:09:59.726Z,79.36
2018-09-03T02:12:32.831Z,79.26
2018-09-03T02:15:12.550Z,79.22
2018-09-03T02:17:45.735Z,79.04
2018-09-03T02:20:21.514Z,79.10
2018-09-03T02:22:54.606Z,79.24
2018-09-03T02:25:31.406Z,79.36
2018-09-03T02:28:03.955Z,79.68
2018-09-03T02:30:38.482Z,79.93
2018-09-03T02:33:12.518Z,79.84
2018-09-03T02:35:45.749Z,80.24
2018-09-03T02:38:18.972Z,80.60
2018-09-03T02:40:52.510Z,80.80
2018-09-03T02:43:26.769Z,80.94
2018-09-03T02:45:59.694Z,81.57
2018-09-03T02:48:32.223Z,81.46
2018-09-03T02:51:06.271Z,81.60
2018-09-03T02:53:39.148Z,81.93
2018-09-03T02:56:15.568Z,81.72
2018-09-03T02:58:48.746Z,81.46
2018-09-03T03:01:22.609Z,81.34
2018-09-03T03:03:55.198Z,81.21
2018-09-03T03:06:27.854Z,81.08
2018-09-03T03:09:03.562Z,80.96
2018-09-03T03:11:38.062Z,80.85
2018-09-03T03:14:10.581Z,80.76
2018-09-03T03:16:43.400Z,80.73
2018-09-03T03:19:16.021Z,80.71
2018-09-03T03:21:48.955Z,80.75
2018-09-03T03:24:21.919Z,80.54
2018-09-03T03:26:54.576Z,80.33
2018-09-03T03:29:27.083Z,80.35
2018-09-03T03:32:01.148Z,80.57
2018-09-03T03:34:33.496Z,80.83
2018-09-03T03:37:06.319Z,81.04
2018-09-03T03:39:39.320Z,81.28
2018-09-03T03:42:11.861Z,81.71
2018-09-03T03:44:44.692Z,81.65
2018-09-03T03:47:18.455Z,82.09
2018-09-03T03:49:51.809Z,82.10
2018-09-03T03:52:24.693Z,82.97
2018-09-03T03:54:58.721Z,83.44
2018-09-03T03:57:31.199Z,83.39
2018-09-03T04:00:06.292Z,83.45
2018-09-03T04:02:39.166Z,83.42
2018-09-03T04:05:13.297Z,83.44
2018-09-03T04:07:47.693Z,83.36
2018-09-03T04:10:21.037Z,83.37
2018-09-03T04:12:57.656Z,83.39
2018-09-03T04:15:30.073Z,83.41
2018-09-03T04:18:04.191Z,83.34
2018-09-03T04:20:36.636Z,83.53
2018-09-03T04:23:09.421Z,83.42
2018-09-03T04:25:43.712Z,83.39
2018-09-03T04:28:16.813Z,83.39
2018-09-03T04:30:50.700Z,83.37
2018-09-03T04:33:24.545Z,83.38
2018-09-03T04:35:57.056Z,83.38
2018-09-03T04:38:29.657Z,83.36
2018-09-03T04:41:02.347Z,83.38
2018-09-03T04:43:34.809Z,83.31
2018-09-03T04:46:08.480Z,83.24
2018-09-03T04:48:41.376Z,83.20
2018-09-03T04:51:14.100Z,83.16
2018-09-03T04:53:46.695Z,83.14
2018-09-03T04:56:21.129Z,83.07
2018-09-03T04:58:53.927Z,83.08
2018-09-03T05:01:26.503Z,83.07
2018-09-03T05:03:59.336Z,83.09
2018-09-03T05:06:31.913Z,83.05
2018-09-03T05:09:05.772Z,82.96
2018-09-03T05:11:39.684Z,83.09
2018-09-03T05:14:13.054Z,83.26
2018-09-03T05:16:49.164Z,83.18
2018-09-03T05:19:23.946Z,83.32
2018-09-03T05:21:59.292Z,83.23
2018-09-03T05:24:33.515Z,83.31
2018-09-03T05:27:06.399Z,83.28
2018-09-03T05:29:40.309Z,83.18
2018-09-03T05:32:13.964Z,83.17
2018-09-03T05:34:47.065Z,82.95
2018-09-03T05:37:19.857Z,82.75
2018-09-03T05:39:55.661Z,82.70
2018-09-03T05:42:28.140Z,82.66
2018-09-03T05:45:01.214Z,82.69
2018-09-03T05:47:34.805Z,82.35
2018-09-03T05:50:07.673Z,82.33
2018-09-03T05:52:41.687Z,82.27
2018-09-03T05:55:14.532Z,81.99
2018-09-03T05:57:47.077Z,81.66
2018-09-03T06:00:24.527Z,81.53
2018-09-03T06:02:57.069Z,81.44
2018-09-03T06:05:29.626Z,81.24
2018-09-03T06:08:07.212Z,81.06
2018-09-03T06:10:40.126Z,80.94
2018-09-03T06:13:12.448Z,80.81
2018-09-03T06:15:47.937Z,80.61
2018-09-03T06:18:21.284Z,80.45
2018-09-03T06:20:54.615Z,80.35
2018-09-03T06:23:28.673Z,80.07
2018-09-03T06:26:01.368Z,79.85
2018-09-03T06:28:35.186Z,79.66
2018-09-03T06:31:08.565Z,79.24
2018-09-03T06:33:42.196Z,79.01
2018-09-03T06:36:14.860Z,78.99
2018-09-03T06:38:48.284Z,78.90
2018-09-03T06:41:20.952Z,78.13
2018-09-03T06:43:55.276Z,78.26
2018-09-03T06:46:28.862Z,78.25
2018-09-03T06:49:02.192Z,78.09
2018-09-03T06:51:36.273Z,78.08
2018-09-03T06:54:12.394Z,78.15
2018-09-03T06:56:45.616Z,78.04
2018-09-03T06:59:19.784Z,78.14
2018-09-03T07:01:54.226Z,78.16
2018-09-03T07:04:27.348Z,78.06
2018-09-03T07:07:00.972Z,77.54
2018-09-03T07:09:34.135Z,77.42
2018-09-03T07:12:07.748Z,77.22
2018-09-03T07:14:43.939Z,77.17
2018-09-03T07:17:17.248Z,76.55
2018-09-03T07:19:56.862Z,76.68
2018-09-03T07:22:32.924Z,76.37
2018-09-03T07:25:06.196Z,75.81
2018-09-03T07:27:38.840Z,75.10
2018-09-03T07:30:13.685Z,74.34
2018-09-03T07:32:47.146Z,73.84
2018-09-03T07:35:21.885Z,73.40
2018-09-03T07:37:54.529Z,73.09
2018-09-03T07:40:27.832Z,72.99
2018-09-03T07:43:03.554Z,72.67
2018-09-03T07:45:36.727Z,72.61
2018-09-03T07:48:13.822Z,72.69
2018-09-03T07:50:48.593Z,73.02
2018-09-03T07:53:22.340Z,73.25
2018-09-03T07:55:57.851Z,73.13
2018-09-03T07:58:32.792Z,74.20
2018-09-03T08:01:10.324Z,75.29
2018-09-03T08:03:42.804Z,75.64
2018-09-03T08:06:17.023Z,75.46
2018-09-03T08:08:51.017Z,75.55
2018-09-03T08:11:24.071Z,75.78
2018-09-03T08:13:57.706Z,75.88
2018-09-03T08:16:30.439Z,75.84
2018-09-03T08:19:04.840Z,75.75
2018-09-03T08:21:37.999Z,75.68
2018-09-03T08:24:11.912Z,75.67
2018-09-03T08:26:45.854Z,76.33
2018-09-03T08:29:19.522Z,76.99
2018-09-03T08:31:55.311Z,77.63
2018-09-03T08:34:32.568Z,78.61
2018-09-03T08:37:08.905Z,79.13
2018-09-03T08:39:45.501Z,79.87
2018-09-03T08:42:19.836Z,80.29
2018-09-03T08:44:56.214Z,80.71
2018-09-03T08:47:29.306Z,81.12
2018-09-03T08:50:04.417Z,81.38
2018-09-03T08:52:39.123Z,81.77
2018-09-03T08:55:11.721Z,81.95
2018-09-03T08:57:47.310Z,82.32
2018-09-03T09:00:22.668Z,82.78
2018-09-03T09:02:57.608Z,82.92
2018-09-03T09:05:33.859Z,82.91
2018-09-03T09:08:10.016Z,83.01
2018-09-03T09:10:44.489Z,83.33
2018-09-03T09:13:18.791Z,83.36
2018-09-03T09:15:53.916Z,83.42
2018-09-03T09:18:29.609Z,83.26
2018-09-03T09:21:03.956Z,83.81
2018-09-03T09:23:39.621Z,83.89
2018-09-03T09:26:14.581Z,84.62
2018-09-03T09:28:48.125Z,84.59
2018-09-03T09:31:22.474Z,84.59
2018-09-03T09:34:00.304Z,84.56
2018-09-03T09:36:34.032Z,84.85
2018-09-03T09:39:12.552Z,84.73
2018-09-03T09:41:47.925Z,84.70
2018-09-03T09:44:20.437Z,84.55
2018-09-03T09:46:57.475Z,83.93
2018-09-03T09:49:30.022Z,83.08
2018-09-03T09:52:03.948Z,82.85
2018-09-03T09:54:36.705Z,82.40
2018-09-03T09:57:12.334Z,82.08
2018-09-03T09:59:45.942Z,81.16
2018-09-03T10:02:19.860Z,80.64
2018-09-03T10:04:52.873Z,80.70
2018-09-03T10:07:26.781Z,80.52
2018-09-03T10:10:00.692Z,78.80
2018-09-03T10:12:34.529Z,78.31
2018-09-03T10:15:07.024Z,78.13
2018-09-03T10:17:40.426Z,77.52
2018-09-03T10:20:14.107Z,77.21
2018-09-03T10:22:47.617Z,77.14
2018-09-03T10:25:20.993Z,77.36
2018-09-03T10:27:54.526Z,75.50
2018-09-03T10:30:54.859Z,74.76
2018-09-03T10:33:37.927Z,74.29
2018-09-03T10:36:10.761Z,72.72
2018-09-03T10:38:46.878Z,72.81
2018-09-03T10:41:19.872Z,72.93
2018-09-03T10:43:53.777Z,71.87
2018-09-03T10:46:28.019Z,72.34
2018-09-03T10:49:02.659Z,71.42
2018-09-03T10:51:36.944Z,70.59
2018-09-03T10:54:12.039Z,69.38
2018-09-03T10:56:45.263Z,67.44
2018-09-03T10:59:18.704Z,67.09
2018-09-03T11:01:54.624Z,64.18
2018-09-03T11:04:31.387Z,63.42
2018-09-03T11:07:04.088Z,60.58
2018-09-03T11:09:43.721Z,59.90
2018-09-03T11:12:19.657Z,59.73
2018-09-03T11:14:52.262Z,60.27
2018-09-03T11:17:27.227Z,61.26
2018-09-03T11:20:06.857Z,62.21
2018-09-03T11:22:40.228Z,62.75
2018-09-03T11:25:19.354Z,62.52
2018-09-03T11:27:53.712Z,61.89
2018-09-03T11:30:29.917Z,61.25
2018-09-03T11:33:04.548Z,59.43
2018-09-03T11:35:39.060Z,59.82
2018-09-03T11:38:16.946Z,59.73
2018-09-03T11:40:54.085Z,59.14
2018-09-03T11:43:27.296Z,59.15
2018-09-03T11:45:59.812Z,59.06
2018-09-03T11:48:32.443Z,58.91
2018-09-03T11:51:05.193Z,59.92
2018-09-03T11:53:38.480Z,58.92
2018-09-03T11:56:11.017Z,58.89
2018-09-03T11:58:45.207Z,58.99
2018-09-03T12:01:20.112Z,59.63
2018-09-03T12:03:52.644Z,59.16
2018-09-03T12:06:25.285Z,59.02
2018-09-03T12:09:03.405Z,58.82
2018-09-03T12:11:37.674Z,58.69
2018-09-03T12:14:18.552Z,58.41
2018-09-03T12:16:52.272Z,58.38
2018-09-03T12:19:25.645Z,58.65
2018-09-03T12:22:04.018Z,59.31
2018-09-03T12:24:39.606Z,59.31
2018-09-03T12:27:16.720Z,59.41
2018-09-03T12:29:50.917Z,59.30
2018-09-03T12:32:26.270Z,59.51
2018-09-03T12:34:59.437Z,59.67
2018-09-03T12:37:34.320Z,59.18
2018-09-03T12:40:07.356Z,57.17
2018-09-03T12:42:41.314Z,56.26
2018-09-03T12:45:59.311Z,56.77
2018-09-03T12:48:32.995Z,57.12
2018-09-03T12:51:05.786Z,57.47
2018-09-03T12:53:38.717Z,57.73
2018-09-03T12:56:12.265Z,57.87
2018-09-03T12:58:47.802Z,58.74
2018-09-03T13:01:21.609Z,57.27
2018-09-03T13:03:57.215Z,56.43
2018-09-03T13:06:31.339Z,55.25
2018-09-03T13:09:07.213Z,54.38
2018-09-03T13:11:39.830Z,54.34
2018-09-03T13:14:13.963Z,54.44
2018-09-03T13:16:49.315Z,54.15
2018-09-03T13:19:23.940Z,51.68
2018-09-03T13:21:59.477Z,52.09
2018-09-03T13:24:36.564Z,53.24
2018-09-03T13:27:11.188Z,53.74
2018-09-03T13:29:46.720Z,54.53
2018-09-03T13:32:21.313Z,55.57
2018-09-03T13:34:56.226Z,56.35
2018-09-03T13:37:31.024Z,56.93
2018-09-03T13:40:05.356Z,58.00
2018-09-03T13:42:40.209Z,58.52
2018-09-03T13:45:15.873Z,58.77
2018-09-03T13:47:49.254Z,58.87
2018-09-03T13:50:23.874Z,59.26
2018-09-03T13:52:56.514Z,59.28
2018-09-03T13:55:29.109Z,59.24
2018-09-03T13:58:03.936Z,58.74
2018-09-03T14:00:36.624Z,57.62
2018-09-03T14:03:10.812Z,56.65
2018-09-03T14:05:44.500Z,55.99
2018-09-03T14:08:21.693Z,56.22
2018-09-03T14:10:56.791Z,56.29
2018-09-03T14:13:30.324Z,56.42
2018-09-03T14:16:06.476Z,57.33
2018-09-03T14:18:40.021Z,57.34
2018-09-03T14:21:13.636Z,59.21
2018-09-03T14:23:48.854Z,62.40
2018-09-03T14:26:24.148Z,62.89
2018-09-03T14:28:57.673Z,63.90
2018-09-03T14:31:33.348Z,63.79
2018-09-03T14:34:08.546Z,64.21
2018-09-03T14:36:44.824Z,64.14
2018-09-03T14:39:22.372Z,64.04
2018-09-03T14:41:54.827Z,63.48
2018-09-03T14:44:31.646Z,62.80
2018-09-03T14:47:06.242Z,62.96
2018-09-03T14:49:40.776Z,62.91
2018-09-03T14:52:15.498Z,62.23
2018-09-03T14:54:49.346Z,61.79
2018-09-03T14:57:23.329Z,61.66
2018-09-03T15:00:00.857Z,61.61
2018-09-03T15:02:40.446Z,61.56
2018-09-03T15:05:13.998Z,60.27
2018-09-03T15:07:49.945Z,60.11
2018-09-03T15:10:23.108Z,59.29
2018-09-03T15:12:56.652Z,58.88
2018-09-03T15:15:33.353Z,59.16
2018-09-03T15:18:11.325Z,59.34
2018-09-03T15:20:49.566Z,58.19
2018-09-03T15:23:27.929Z,58.35
2018-09-03T15:26:10.005Z,58.71
2018-09-03T15:28:49.660Z,58.88
2018-09-03T15:31:28.419Z,58.79
2018-09-03T15:34:06.714Z,58.41
2018-09-03T15:36:47.346Z,59.13
2018-09-03T15:39:25.318Z,59.59
2018-09-03T15:42:04.759Z,59.84
2018-09-03T15:44:43.025Z,60.32
2018-09-03T15:47:22.244Z,60.52
2018-09-03T15:50:01.774Z,60.66
2018-09-03T15:52:37.188Z,61.07
2018-09-03T15:55:10.387Z,61.69
2018-09-03T15:57:44.080Z,62.02
2018-09-03T16:00:17.327Z,62.02
2018-09-03T16:02:52.634Z,62.14
2018-09-03T16:05:26.175Z,61.17
2018-09-03T16:08:05.295Z,61.20
2018-09-03T16:10:39.932Z,60.75
2018-09-03T16:13:14.699Z,60.96
2018-09-03T16:15:49.612Z,61.12
2018-09-03T16:18:22.552Z,60.92
2018-09-03T16:20:57.847Z,60.73
2018-09-03T16:23:30.493Z,61.06
2018-09-03T16:26:04.154Z,61.08
2018-09-03T16:28:38.746Z,61.14
2018-09-03T16:31:13.394Z,61.54
2018-09-03T16:33:46.332Z,61.98
2018-09-03T16:36:20.653Z,62.17
2018-09-03T16:38:55.377Z,62.53
2018-09-03T16:41:29.220Z,62.92
2018-09-03T16:44:05.112Z,63.32
2018-09-03T16:46:37.704Z,63.51
2018-09-03T16:49:12.509Z,63.92
2018-09-03T16:51:47.921Z,64.06
2018-09-03T16:54:23.646Z,64.54
2018-09-03T16:56:57.916Z,64.86
2018-09-03T16:59:32.077Z,65.01
2018-09-03T17:02:05.627Z,65.12
2018-09-03T17:04:39.953Z,65.49
2018-09-03T17:07:14.368Z,65.56
2018-09-03T17:09:49.436Z,65.95
2018-09-03T17:12:28.842Z,66.18
2018-09-03T17:15:05.001Z,66.46
2018-09-03T17:17:39.817Z,66.64
2018-09-03T17:20:17.121Z,66.89
2018-09-03T17:22:52.323Z,67.28
2018-09-03T17:25:25.832Z,67.45
2018-09-03T17:28:00.854Z,67.73
2018-09-03T17:30:35.593Z,67.88
2018-09-03T17:33:11.619Z,67.90
2018-09-03T17:35:46.113Z,67.95
2018-09-03T17:38:20.966Z,68.18
2018-09-03T17:40:53.554Z,68.37
2018-09-03T17:43:26.297Z,68.41
2018-09-03T17:45:59.227Z,68.50
2018-09-03T17:48:33.352Z,68.81
2018-09-03T17:51:07.615Z,68.98
2018-09-03T17:53:41.826Z,69.15
2018-09-03T17:56:18.590Z,69.57
2018-09-03T17:58:51.411Z,69.86
2018-09-03T18:01:24.581Z,70.52
2018-09-03T18:04:00.637Z,70.72
2018-09-03T18:06:34.170Z,71.12
2018-09-03T18:09:09.525Z,71.41
2018-09-03T18:11:43.820Z,71.86
2018-09-03T18:14:16.487Z,72.33
2018-09-03T18:16:49.446Z,72.42
2018-09-03T18:19:25.192Z,72.77
2018-09-03T18:22:00.023Z,73.05
2018-09-03T18:24:35.744Z,73.38
2018-09-03T18:27:09.036Z,73.66
2018-09-03T18:29:41.696Z,73.99
2018-09-03T18:32:18.950Z,74.24
2018-09-03T18:34:54.041Z,74.40
2018-09-03T18:37:29.398Z,74.75
2018-09-03T18:40:06.915Z,74.81
2018-09-03T18:42:41.080Z,74.86
2018-09-03T18:45:16.157Z,74.88
2018-09-03T18:47:49.412Z,75.64
2018-09-03T18:50:22.240Z,75.84
2018-09-03T18:52:58.376Z,76.28
2018-09-03T18:55:32.432Z,76.38
2018-09-03T18:58:07.502Z,76.60
2018-09-03T19:00:42.233Z,76.56
2018-09-03T19:03:14.817Z,76.94
2018-09-03T19:05:54.475Z,77.23
2018-09-03T19:08:29.521Z,77.18
2018-09-03T19:11:03.700Z,77.21
2018-09-03T19:13:41.222Z,77.38
2018-09-03T19:16:16.593Z,77.33
2018-09-03T19:18:55.253Z,77.48
2018-09-03T19:21:30.561Z,77.45
2018-09-03T19:24:06.596Z,77.63
2018-09-03T19:26:44.105Z,77.52
2018-09-03T19:29:17.683Z,77.55
2018-09-03T19:31:57.694Z,77.60
2018-09-03T19:34:37.890Z,77.98
2018-09-03T19:37:11.916Z,77.92
2018-09-03T19:39:45.951Z,77.98
2018-09-03T19:42:19.054Z,78.11
2018-09-03T19:44:54.797Z,78.46
2018-09-03T19:47:27.853Z,78.79
2018-09-03T19:50:01.450Z,79.72
2018-09-03T19:52:34.216Z,79.77
2018-09-03T19:55:09.023Z,79.74
2018-09-03T19:57:43.360Z,79.99
2018-09-03T20:00:17.711Z,79.76
2018-09-03T20:02:51.017Z,79.81
2018-09-03T20:05:24.311Z,80.28
2018-09-03T20:07:57.628Z,80.25
2018-09-03T20:10:32.653Z,80.58
2018-09-03T20:13:07.324Z,80.84
2018-09-03T20:15:40.908Z,81.03
2018-09-03T20:18:14.938Z,81.14
2018-09-03T20:20:49.453Z,81.13
2018-09-03T20:23:23.766Z,81.11
2018-09-03T20:26:00.661Z,81.04
2018-09-03T20:28:36.411Z,81.29
2018-09-03T20:31:11.152Z,81.13
2018-09-03T20:33:46.116Z,81.72
2018-09-03T20:36:18.639Z,81.62
2018-09-03T20:38:54.444Z,81.75
2018-09-03T20:41:29.457Z,82.31
2018-09-03T20:44:10.497Z,82.34
2018-09-03T20:46:51.809Z,82.60
2018-09-03T20:49:25.633Z,82.80
2018-09-03T20:52:00.685Z,83.00
2018-09-03T20:54:33.461Z,83.16
2018-09-03T20:57:09.825Z,83.39
2018-09-03T20:59:43.675Z,83.32
2018-09-03T21:02:20.270Z,83.77
2018-09-03T21:04:54.241Z,83.78
2018-09-03T21:07:27.709Z,83.63
2018-09-03T21:10:03.652Z,83.79
2018-09-03T21:12:37.993Z,83.91
2018-09-03T21:15:12.618Z,83.93
2018-09-03T21:17:46.245Z,84.15
2018-09-03T21:20:19.664Z,84.23
2018-09-03T21:22:52.504Z,84.12
2018-09-03T21:25:27.916Z,84.25
2018-09-03T21:28:01.462Z,84.33
2018-09-03T21:30:34.291Z,84.46
2018-09-03T21:33:07.308Z,84.46
2018-09-03T21:35:40.048Z,84.51
2018-09-03T21:38:14.483Z,84.60
2018-09-03T21:40:48.775Z,84.61
2018-09-03T21:43:22.095Z,84.73
2018-09-03T21:45:54.653Z,84.81
2018-09-03T21:48:29.885Z,84.78
2018-09-03T21:51:04.508Z,84.68
2018-09-03T21:53:38.096Z,84.70
2018-09-03T21:56:12.402Z,84.85
2018-09-03T21:58:46.144Z,85.23
2018-09-03T22:01:20.082Z,85.27
2018-09-03T22:03:53.134Z,85.30
2018-09-03T22:06:27.705Z,85.40
2018-09-03T22:09:03.122Z,85.69
2018-09-03T22:11:37.725Z,85.67
2018-09-03T22:14:12.502Z,85.67
2018-09-03T22:19:18.291Z,85.72
2018-09-03T22:21:52.775Z,85.71
2018-09-03T22:24:25.899Z,85.72
2018-09-03T22:26:59.997Z,85.80
2018-09-03T22:29:32.728Z,86.03
2018-09-03T22:32:05.808Z,86.34
2018-09-03T22:34:39.682Z,86.87
2018-09-03T22:37:12.148Z,86.74
2018-09-03T22:39:44.828Z,86.75
2018-09-03T22:42:18.380Z,87.44
2018-09-03T22:44:51.561Z,87.30
2018-09-03T22:47:24.423Z,87.27
2018-09-03T22:50:01.135Z,87.41
2018-09-03T22:52:33.824Z,88.35
2018-09-03T22:55:07.967Z,88.30
2018-09-03T22:57:42.691Z,88.30
2018-09-03T23:00:19.299Z,88.28
2018-09-03T23:02:52.592Z,89.04
2018-09-03T23:05:25.928Z,89.66
2018-09-03T23:07:58.495Z,89.88
2018-09-03T23:10:32.026Z,90.04
2018-09-03T23:13:04.938Z,90.19
2018-09-03T23:15:50.096Z,90.28
2018-09-03T23:18:23.800Z,90.44
2018-09-03T23:20:58.018Z,90.47
2018-09-03T23:23:30.524Z,90.43
2018-09-03T23:26:04.008Z,90.59
2018-09-03T23:28:37.712Z,90.72
2018-09-03T23:31:10.372Z,90.79
2018-09-03T23:33:43.792Z,90.92
2018-09-03T23:36:17.983Z,91.03
2018-09-03T23:38:51.557Z,91.15
2018-09-03T23:41:24.361Z,91.01
2018-09-03T23:43:57.328Z,91.28
2018-09-03T23:46:29.935Z,91.52
2018-09-03T23:49:03.282Z,91.64
2018-09-03T23:51:37.029Z,91.74
2018-09-03T23:54:10.231Z,91.73
2018-09-03T23:56:44.397Z,91.69
2018-09-03T23:59:17.903Z,91.87
